Terminal Aerodrome Forecast
Issued by NWS Binghamton, NY

Home | Current Version | Previous Version | Text Only | Print | Product List | Glossary On
Versions: 1 2 3 4 5 6 7 8 9 10 11 12 13 14 15 16 17 18 19 20
000
FTUS41 KBGM 292300
TAFSYR
TAF
KSYR 292340Z 3000/3024 16012KT 5SM -SHSN OVC020 WS020/18045KT
      TEMPO 3000/3004 1 1/2SM -SN
     FM300400 16012KT 1SM -SN OVC012
     FM301200 30014G25KT 1 1/2SM -SHSN OVC015=

USA.gov is the U.S. government's official web portal to all federal, state and local government web resources and services.